Time;durP1;ratioP1;P1;durP2;ratioP2;P2;SDS_P1;SDS_P2;PMS_P1;PMS_P2;Temp;Humidity;BMP_temperature;BMP_pressure;BME280_temperature;BME280_humidity;BME280_pressure;Samples;Min_cycle;Max_cycle;Signal;HPM_P1;HPM_P2
2024/01/19 00:02:11;;;;;;;0.40;0.40;;;0.00;99.90;;;;;;5072582;28;20190;-87
2024/01/19 00:04:36;;;;;;;0.60;0.60;;;0.00;99.90;;;;;;5071955;28;20228;-86
2024/01/19 00:07:02;;;;;;;0.60;0.60;;;0.00;99.90;;;;;;5072410;28;20025;-87
2024/01/19 00:09:28;;;;;;;0.60;0.60;;;0.00;99.90;;;;;;5052462;28;20177;-87
2024/01/19 00:11:53;;;;;;;0.50;0.50;;;0.00;99.90;;;;;;5054298;28;20216;-87
2024/01/19 00:14:19;;;;;;;0.40;0.40;;;0.00;99.90;;;;;;5054504;28;20647;-87
2024/01/19 00:16:44;;;;;;;0.50;0.50;;;0.00;99.90;;;;;;5053591;28;20189;-87
2024/01/19 00:19:11;;;;;;;0.50;0.50;;;0.00;99.90;;;;;;5070225;28;20228;-87
2024/01/19 00:21:46;;;;;;;0.50;0.50;;;0.00;99.90;;;;;;5072265;28;20900;-87
2024/01/19 00:24:13;;;;;;;0.50;0.50;;;0.00;99.90;;;;;;5071708;28;20219;-86
2024/01/19 00:26:39;;;;;;;0.50;0.50;;;0.00;99.90;;;;;;5073141;28;20450;-87
2024/01/19 00:29:05;;;;;;;0.50;0.50;;;0.10;99.90;;;;;;5071516;28;20432;-86
2024/01/19 00:31:31;;;;;;;0.40;0.40;;;0.10;99.90;;;;;;5072029;28;21358;-86
2024/01/19 00:33:57;;;;;;;0.60;0.60;;;0.10;99.90;;;;;;5070991;28;20515;-87
2024/01/19 00:36:22;;;;;;;0.40;0.40;;;0.10;99.90;;;;;;5069939;28;20531;-87
2024/01/19 00:38:48;;;;;;;0.60;0.60;;;0.10;99.90;;;;;;5069565;28;20178;-87
2024/01/19 00:41:14;;;;;;;0.50;0.50;;;0.10;99.90;;;;;;5066637;28;20194;-86
2024/01/19 00:43:40;;;;;;;0.50;0.50;;;0.10;99.90;;;;;;5069059;28;20267;-86
2024/01/19 00:46:07;;;;;;;0.50;0.50;;;0.10;99.90;;;;;;5053543;28;20456;-87
2024/01/19 00:48:32;;;;;;;0.47;0.47;;;0.10;99.90;;;;;;5071601;28;20174;-86
2024/01/19 00:50:58;;;;;;;0.50;0.50;;;0.10;99.90;;;;;;5069928;28;20439;-87
2024/01/19 00:53:23;;;;;;;0.60;0.60;;;0.10;99.90;;;;;;5069435;28;20217;-87
2024/01/19 00:55:49;;;;;;;0.50;0.50;;;0.00;99.90;;;;;;5054027;28;20186;-87
2024/01/19 00:58:15;;;;;;;0.40;0.40;;;0.00;99.90;;;;;;5071591;28;20186;-87
2024/01/19 01:00:41;;;;;;;0.43;0.43;;;-0.10;99.90;;;;;;5058561;28;20171;-87
2024/01/19 01:03:06;;;;;;;0.40;0.40;;;-0.10;99.90;;;;;;5071377;28;20845;-86
2024/01/19 01:05:32;;;;;;;0.40;0.40;;;-0.10;99.90;;;;;;5072046;28;20221;-87
2024/01/19 01:07:57;;;;;;;0.50;0.50;;;0.00;99.90;;;;;;5047548;28;20272;-87
2024/01/19 01:10:23;;;;;;;0.60;0.60;;;0.00;99.90;;;;;;5071511;28;20253;-87
2024/01/19 01:12:48;;;;;;;0.50;0.50;;;0.00;99.90;;;;;;5070505;28;20174;-87
2024/01/19 01:15:14;;;;;;;0.50;0.50;;;0.00;99.90;;;;;;5053093;28;20244;-87
2024/01/19 01:17:39;;;;;;;0.40;0.40;;;0.00;99.90;;;;;;5070962;28;20273;-86
2024/01/19 01:20:05;;;;;;;0.50;0.50;;;-0.10;99.90;;;;;;5071007;28;20185;-86
2024/01/19 01:22:32;;;;;;;0.50;0.50;;;-0.10;99.90;;;;;;5070261;28;20243;-86
2024/01/19 01:24:58;;;;;;;0.47;0.47;;;-0.10;99.90;;;;;;5069962;28;20846;-86
2024/01/19 01:27:23;;;;;;;0.47;0.47;;;-0.10;99.90;;;;;;5052531;28;20432;-87
2024/01/19 01:29:49;;;;;;;0.50;0.50;;;-0.10;99.90;;;;;;5067877;28;20194;-87
2024/01/19 01:32:14;;;;;;;0.60;0.60;;;-0.10;99.90;;;;;;5069143;28;20186;-85
2024/01/19 01:34:40;;;;;;;0.40;0.40;;;-0.10;99.90;;;;;;5049693;28;20716;-87
2024/01/19 01:37:06;;;;;;;0.50;0.50;;;0.00;99.90;;;;;;5070688;28;20174;-86
2024/01/19 01:39:31;;;;;;;0.57;0.57;;;0.00;99.90;;;;;;5069335;28;20193;-86
2024/01/19 01:41:57;;;;;;;0.60;0.60;;;0.00;99.90;;;;;;5069339;28;20424;-87
2024/01/19 01:44:23;;;;;;;0.50;0.50;;;0.00;99.90;;;;;;5069345;28;20729;-86
2024/01/19 01:46:49;;;;;;;0.60;0.60;;;-0.10;99.90;;;;;;5052487;28;20236;-86
2024/01/19 01:49:15;;;;;;;0.50;0.50;;;0.00;99.90;;;;;;5070118;28;20669;-87
2024/01/19 01:51:40;;;;;;;0.50;0.50;;;0.00;99.90;;;;;;5070626;28;20611;-87
2024/01/19 01:54:07;;;;;;;0.50;0.50;;;0.00;99.90;;;;;;5071106;28;20427;-87
2024/01/19 01:56:34;;;;;;;0.50;0.50;;;0.00;99.90;;;;;;5068247;28;20217;-86
2024/01/19 01:59:13;;;;;;;0.50;0.50;;;0.00;99.90;;;;;;5064627;28;20444;-86
2024/01/19 02:01:38;;;;;;;0.50;0.50;;;0.00;99.90;;;;;;5061549;28;20420;-86
2024/01/19 02:04:11;;;;;;;0.60;0.60;;;0.10;99.90;;;;;;5051938;28;20490;-87
2024/01/19 02:06:40;;;;;;;0.40;0.40;;;0.00;99.90;;;;;;5070284;28;20272;-86
2024/01/19 02:09:07;;;;;;;0.50;0.50;;;-0.10;99.90;;;;;;5070508;28;20881;-85
2024/01/19 02:11:33;;;;;;;0.50;0.50;;;-0.10;99.90;;;;;;5069486;28;20530;-85
2024/01/19 02:14:05;;;;;;;0.50;0.50;;;-0.20;99.90;;;;;;5050270;28;20456;-87
2024/01/19 02:19:36;;;;;;;0.50;0.50;;;-0.20;99.90;;;;;;5048728;28;20440;-87
2024/01/19 02:22:03;;;;;;;0.50;0.50;;;-0.20;99.90;;;;;;5069897;28;20432;-86
2024/01/19 02:24:29;;;;;;;0.40;0.40;;;-0.30;99.90;;;;;;5051633;28;20218;-86
2024/01/19 02:26:55;;;;;;;0.50;0.50;;;-0.30;99.90;;;;;;5051910;28;20444;-86
2024/01/19 02:29:30;;;;;;;0.40;0.40;;;-0.20;99.90;;;;;;5069200;28;20182;-86
2024/01/19 02:31:55;;;;;;;0.50;0.50;;;-0.20;99.90;;;;;;5049474;28;20432;-86
2024/01/19 02:34:22;;;;;;;0.50;0.50;;;-0.20;99.90;;;;;;5063941;28;20783;-86
2024/01/19 02:36:48;;;;;;;0.57;0.57;;;-0.20;99.90;;;;;;5070464;28;20664;-86
2024/01/19 02:39:14;;;;;;;0.50;0.50;;;-0.30;99.90;;;;;;5069424;28;20832;-85
2024/01/19 02:41:41;;;;;;;0.40;0.40;;;-0.30;99.90;;;;;;5068936;28;20922;-86
2024/01/19 02:44:06;;;;;;;0.50;0.50;;;-0.30;99.90;;;;;;5069821;28;20221;-86
2024/01/19 02:46:32;;;;;;;0.43;0.43;;;-0.40;99.90;;;;;;5046645;28;20447;-86
2024/01/19 02:48:57;;;;;;;0.50;0.50;;;-0.40;99.90;;;;;;5069574;28;20637;-86
2024/01/19 02:51:23;;;;;;;0.50;0.50;;;-0.40;99.90;;;;;;5069621;28;20187;-86
2024/01/19 02:53:48;;;;;;;0.40;0.40;;;-0.40;99.90;;;;;;5051316;28;20174;-86
2024/01/19 02:56:14;;;;;;;0.50;0.50;;;-0.50;99.90;;;;;;5069803;28;20182;-86
2024/01/19 02:58:40;;;;;;;0.40;0.40;;;-0.50;99.90;;;;;;5068583;28;20204;-86
2024/01/19 03:01:07;;;;;;;0.40;0.40;;;-0.40;99.90;;;;;;5069260;28;21121;-86
2024/01/19 03:03:33;;;;;;;0.50;0.50;;;-0.40;99.90;;;;;;5056839;28;20179;-86
2024/01/19 03:05:59;;;;;;;0.50;0.50;;;-0.50;99.90;;;;;;5038674;28;20443;-86
2024/01/19 03:08:24;;;;;;;0.60;0.60;;;-0.40;99.90;;;;;;5069604;28;20659;-86
2024/01/19 03:10:50;;;;;;;0.50;0.50;;;-0.40;99.90;;;;;;5050760;28;20225;-86
2024/01/19 03:13:16;;;;;;;0.60;0.60;;;-0.40;99.90;;;;;;5068349;28;20181;-86
2024/01/19 03:15:41;;;;;;;0.60;0.60;;;-0.40;99.90;;;;;;5066249;28;20198;-86
2024/01/19 03:18:06;;;;;;;0.50;0.50;;;-0.40;99.90;;;;;;5049818;28;20185;-86
2024/01/19 03:20:32;;;;;;;0.50;0.50;;;-0.40;99.90;;;;;;5053752;28;20190;-85
2024/01/19 03:22:58;;;;;;;0.50;0.50;;;-0.30;99.90;;;;;;5069584;28;20178;-86
2024/01/19 03:25:26;;;;;;;0.50;0.50;;;-0.20;99.90;;;;;;5069223;28;20264;-86
2024/01/19 03:27:52;;;;;;;0.50;0.50;;;-0.10;99.90;;;;;;5065924;28;20185;-87
2024/01/19 03:30:18;;;;;;;0.50;0.50;;;-0.10;99.90;;;;;;5067581;28;20436;-86
2024/01/19 03:32:43;;;;;;;0.50;0.50;;;-0.10;99.90;;;;;;5068866;28;20178;-86
2024/01/19 03:35:09;;;;;;;0.43;0.43;;;-0.10;99.90;;;;;;5067427;28;20932;-87
2024/01/19 03:37:35;;;;;;;0.50;0.50;;;-0.10;99.90;;;;;;5051940;28;20182;-86
2024/01/19 03:40:00;;;;;;;0.50;0.50;;;-0.10;99.90;;;;;;5067095;28;20202;-86
2024/01/19 03:42:29;;;;;;;0.60;0.60;;;-0.10;99.90;;;;;;5069105;28;20189;-86
2024/01/19 03:44:55;;;;;;;0.53;0.53;;;-0.10;99.90;;;;;;5068515;28;20220;-86
2024/01/19 03:47:21;;;;;;;0.70;0.70;;;-0.10;99.90;;;;;;5067953;28;20428;-86
2024/01/19 03:49:46;;;;;;;0.50;0.50;;;-0.10;99.90;;;;;;5067424;28;20470;-86
2024/01/19 03:52:12;;;;;;;0.60;0.60;;;-0.10;99.90;;;;;;5068294;28;20197;-86
2024/01/19 03:54:37;;;;;;;0.50;0.50;;;-0.10;99.90;;;;;;5068132;28;20190;-86
2024/01/19 03:57:05;;;;;;;0.43;0.43;;;-0.10;99.90;;;;;;5069352;28;20261;-86
2024/01/19 03:59:34;;;;;;;0.50;0.50;;;-0.10;99.90;;;;;;5068857;28;20201;-86
2024/01/19 04:02:00;;;;;;;0.60;0.60;;;-0.10;99.90;;;;;;5050166;28;20432;-86
2024/01/19 04:04:26;;;;;;;0.70;0.70;;;-0.10;99.90;;;;;;5050691;28;20468;-87
2024/01/19 04:06:52;;;;;;;0.60;0.60;;;-0.20;99.90;;;;;;5067394;28;20231;-86
2024/01/19 04:09:19;;;;;;;0.40;0.40;;;-0.20;99.90;;;;;;5068121;28;20452;-86
2024/01/19 04:11:45;;;;;;;0.40;0.40;;;-0.10;99.90;;;;;;5068951;28;20809;-86
2024/01/19 04:14:11;;;;;;;0.50;0.50;;;-0.10;99.90;;;;;;5049540;28;20436;-86
2024/01/19 04:16:38;;;;;;;0.50;0.50;;;-0.10;99.90;;;;;;5067715;28;20432;-86
2024/01/19 04:19:04;;;;;;;0.50;0.50;;;0.00;99.90;;;;;;5068024;28;20781;-86
2024/01/19 04:21:30;;;;;;;0.60;0.60;;;-0.10;99.90;;;;;;5067732;28;20439;-86
2024/01/19 04:23:56;;;;;;;0.50;0.50;;;-0.10;99.90;;;;;;5062268;28;20475;-86
2024/01/19 04:26:21;;;;;;;0.50;0.50;;;-0.10;99.90;;;;;;5071471;28;20190;-85
2024/01/19 04:28:47;;;;;;;0.50;0.50;;;-0.20;99.90;;;;;;5053559;28;20480;-86
2024/01/19 04:31:12;;;;;;;0.50;0.50;;;-0.20;99.90;;;;;;5053461;28;20186;-86
2024/01/19 04:33:38;;;;;;;0.50;0.50;;;-0.20;99.90;;;;;;5068949;28;20186;-86
2024/01/19 04:36:04;;;;;;;0.50;0.50;;;-0.20;99.90;;;;;;5071083;28;20181;-86
2024/01/19 04:38:29;;;;;;;0.50;0.50;;;-0.30;99.90;;;;;;5070660;28;20278;-86
2024/01/19 04:40:55;;;;;;;0.47;0.47;;;-0.30;99.90;;;;;;5071903;28;20182;-86
2024/01/19 04:43:20;;;;;;;0.60;0.60;;;-0.30;99.90;;;;;;5052693;28;20272;-86
2024/01/19 04:45:46;;;;;;;0.40;0.40;;;-0.30;99.90;;;;;;5071632;28;20296;-86
2024/01/19 04:48:11;;;;;;;0.40;0.40;;;-0.30;99.90;;;;;;5071763;28;20182;-86
2024/01/19 04:50:38;;;;;;;0.40;0.40;;;-0.30;99.90;;;;;;5053630;28;20296;-86
2024/01/19 04:53:04;;;;;;;0.50;0.50;;;-0.30;99.90;;;;;;5067408;28;20265;-86
2024/01/19 04:55:30;;;;;;;0.50;0.50;;;-0.40;99.90;;;;;;5071963;28;20439;-86
2024/01/19 04:57:55;;;;;;;0.50;0.50;;;-0.30;99.90;;;;;;5070011;28;20445;-85
2024/01/19 05:00:22;;;;;;;0.50;0.50;;;-0.40;99.90;;;;;;5070690;28;20200;-86
2024/01/19 05:02:48;;;;;;;0.50;0.50;;;-0.40;99.90;;;;;;5068580;28;20193;-86
2024/01/19 05:05:14;;;;;;;0.50;0.50;;;-0.40;99.90;;;;;;5052852;28;20484;-86
2024/01/19 05:07:40;;;;;;;0.60;0.60;;;-0.40;99.90;;;;;;5072295;28;20931;-87
2024/01/19 05:10:06;;;;;;;0.50;0.50;;;-0.20;99.90;;;;;;5067810;28;20467;-86
2024/01/19 05:12:35;;;;;;;0.60;0.60;;;-0.30;99.90;;;;;;5072012;28;20186;-86
2024/01/19 05:15:01;;;;;;;0.47;0.47;;;-0.30;99.90;;;;;;5070206;28;20420;-86
2024/01/19 05:17:26;;;;;;;0.50;0.50;;;-0.30;99.90;;;;;;5070069;28;21209;-86
2024/01/19 05:19:52;;;;;;;0.50;0.50;;;-0.30;99.90;;;;;;5072452;28;20661;-86
2024/01/19 05:22:18;;;;;;;0.40;0.40;;;-0.20;99.90;;;;;;5048926;28;20178;-87
2024/01/19 05:24:44;;;;;;;0.60;0.60;;;-0.20;99.90;;;;;;5071080;28;20248;-87
2024/01/19 05:27:10;;;;;;;0.60;0.60;;;-0.20;99.90;;;;;;5071747;28;20189;-87
2024/01/19 05:29:36;;;;;;;0.40;0.40;;;-0.20;99.90;;;;;;5070428;28;20470;-87
2024/01/19 05:32:02;;;;;;;0.60;0.60;;;-0.20;99.90;;;;;;5070557;28;20517;-86
2024/01/19 05:34:27;;;;;;;0.60;0.60;;;-0.30;99.90;;;;;;5069323;28;20182;-86
2024/01/19 05:36:53;;;;;;;0.50;0.50;;;-0.20;99.90;;;;;;5069513;28;20997;-86
2024/01/19 05:39:19;;;;;;;0.53;0.53;;;-0.30;99.90;;;;;;5067371;28;20190;-85
2024/01/19 05:41:44;;;;;;;0.50;0.50;;;-0.40;99.90;;;;;;5069609;28;20192;-86
2024/01/19 05:44:10;;;;;;;0.60;0.60;;;-0.40;99.90;;;;;;5052799;28;20246;-87
2024/01/19 05:46:36;;;;;;;0.70;0.70;;;-0.40;99.90;;;;;;5052440;28;20190;-86
2024/01/19 05:49:01;;;;;;;0.60;0.60;;;-0.30;99.90;;;;;;5050604;28;20256;-86
2024/01/19 05:51:27;;;;;;;0.50;0.50;;;-0.30;99.90;;;;;;5052098;28;20181;-87
2024/01/19 05:53:55;;;;;;;0.50;0.50;;;-0.40;99.90;;;;;;5069691;28;20189;-86
2024/01/19 05:56:21;;;;;;;0.50;0.50;;;-0.40;99.90;;;;;;5066396;28;20243;-87
2024/01/19 05:58:49;;;;;;;0.50;0.50;;;-0.40;99.90;;;;;;5068825;28;20826;-86
2024/01/19 06:01:15;;;;;;;0.47;0.47;;;-0.30;99.90;;;;;;5066685;28;20194;-87
2024/01/19 06:03:40;;;;;;;0.50;0.50;;;-0.30;99.90;;;;;;5051484;28;20343;-86
2024/01/19 06:06:06;;;;;;;0.40;0.40;;;-0.40;99.90;;;;;;5069152;28;20045;-87
2024/01/19 06:08:35;;;;;;;0.60;0.60;;;-0.40;99.90;;;;;;5067389;28;20116;-86
2024/01/19 06:11:01;;;;;;;0.60;0.60;;;-0.40;99.90;;;;;;5066958;28;20196;-86
2024/01/19 06:13:29;;;;;;;;;;;-0.50;99.90;;;;;;5050605;28;20273;-86
2024/01/19 06:15:55;;;;;;;;;;;-0.60;99.90;;;;;;5066761;28;19918;-86
2024/01/19 06:18:20;;;;;;;;;;;-0.50;99.90;;;;;;5064655;28;19912;-86
2024/01/19 06:20:46;;;;;;;;;;;-0.40;99.90;;;;;;5069320;28;20284;-85
2024/01/19 06:23:12;;;;;;;;;;;-0.40;99.90;;;;;;5068960;28;19943;-86
2024/01/19 06:25:39;;;;;;;;;;;-0.40;99.90;;;;;;5050700;28;19923;-87
2024/01/19 06:28:05;;;;;;;;;;;-0.50;99.90;;;;;;5070538;28;19923;-86
2024/01/19 06:30:31;;;;;;;;;;;-0.50;99.90;;;;;;5068413;28;19912;-86
2024/01/19 06:32:57;;;;;;;;;;;-0.50;99.90;;;;;;5069850;28;19987;-87
2024/01/19 06:35:22;;;;;;;;;;;-0.60;99.90;;;;;;5069816;28;19966;-86
2024/01/19 06:37:48;;;;;;;;;;;-0.70;99.90;;;;;;5061952;28;20357;-88
2024/01/19 06:40:14;;;;;;;;;;;-0.70;99.90;;;;;;5066896;28;19908;-87
2024/01/19 06:42:43;;;;;;;;;;;-0.80;99.90;;;;;;5047130;28;20418;-89
2024/01/19 06:45:09;;;;;;;;;;;-0.80;99.90;;;;;;5050363;28;20318;-88
2024/01/19 06:47:34;;;;;;;;;;;-0.70;99.90;;;;;;5070254;28;20379;-87
2024/01/19 06:50:00;;;;;;;;;;;-0.80;99.90;;;;;;5069393;28;19915;-87
2024/01/19 06:52:25;;;;;;;;;;;-0.80;99.90;;;;;;5070506;28;20550;-89
2024/01/19 06:54:51;;;;;;;;;;;-0.90;99.90;;;;;;5069315;28;19916;-87
2024/01/19 06:57:16;;;;;;;;;;;-0.80;99.90;;;;;;5067774;28;19925;-88
2024/01/19 06:59:41;;;;;;;;;;;-0.80;99.90;;;;;;5070051;28;19916;-87
2024/01/19 07:02:15;;;;;;;;;;;-0.80;99.90;;;;;;5049283;28;20369;-87
2024/01/19 07:04:40;;;;;;;;;;;-0.80;99.90;;;;;;5069208;28;19977;-87
2024/01/19 07:07:06;;;;;;;;;;;-0.90;99.90;;;;;;5067652;28;19916;-87
2024/01/19 07:09:31;;;;;;;;;;;-0.90;99.90;;;;;;5068334;28;19912;-86
2024/01/19 07:11:57;;;;;;;;;;;-0.90;99.90;;;;;;5067002;28;19927;-87
2024/01/19 07:14:24;;;;;;;;;;;-0.90;99.90;;;;;;5069537;28;19908;-86
2024/01/19 07:16:50;;;;;;;;;;;-0.90;99.90;;;;;;5069309;28;20353;-86
2024/01/19 07:19:16;;;;;;;;;;;-0.90;99.90;;;;;;5068021;28;20133;-87
2024/01/19 07:21:42;;;;;;;;;;;-0.80;99.90;;;;;;5070169;28;19958;-87
2024/01/19 07:24:09;;;;;;;;;;;-0.80;99.90;;;;;;5068957;28;19919;-87
2024/01/19 07:26:34;;;;;;;;;;;-0.80;99.90;;;;;;5063291;28;19977;-87
2024/01/19 07:29:04;;;;;;;;;;;-0.80;99.90;;;;;;5070071;28;19958;-86
2024/01/19 07:31:34;;;;;;;;;;;-0.80;99.90;;;;;;5068693;28;19966;-85
2024/01/19 07:34:00;;;;;;;;;;;-0.80;99.90;;;;;;5064622;28;20422;-86
2024/01/19 07:36:26;;;;;;;;;;;-0.90;99.90;;;;;;5064804;28;19908;-85
2024/01/19 07:38:52;;;;;;;;;;;-0.90;99.90;;;;;;5052043;28;20368;-84
2024/01/19 07:41:17;;;;;;;;;;;-0.90;99.90;;;;;;5068831;28;20356;-86
2024/01/19 07:43:43;;;;;;;;;;;-0.90;99.90;;;;;;5068059;28;20292;-87
2024/01/19 07:46:11;;;;;;;;;;;-0.80;99.90;;;;;;5066393;28;19916;-87
2024/01/19 07:48:36;;;;;;;;;;;-0.80;99.90;;;;;;5049474;28;19939;-86
2024/01/19 07:51:03;;;;;;;;;;;-0.70;99.90;;;;;;5044895;28;20404;-87
2024/01/19 07:53:28;;;;;;;;;;;-0.70;99.90;;;;;;5068162;28;19913;-86
2024/01/19 07:55:54;;;;;;;;;;;-0.70;99.90;;;;;;5049943;28;19912;-87
2024/01/19 07:58:19;;;;;;;;;;;-0.70;99.90;;;;;;5066939;28;19913;-87
2024/01/19 08:00:45;;;;;;;0.70;0.70;;;-0.60;99.90;;;;;;5049341;28;20013;-87
2024/01/19 08:03:10;;;;;;;0.60;0.60;;;-0.60;99.90;;;;;;5071394;28;20182;-86
2024/01/19 08:05:36;;;;;;;0.50;0.50;;;-0.50;99.90;;;;;;5065348;28;20340;-88
2024/01/19 08:08:01;;;;;;;0.60;0.60;;;-0.50;99.90;;;;;;5072261;28;20186;-87
2024/01/19 08:10:28;;;;;;;0.50;0.50;;;-0.40;99.90;;;;;;5071119;28;20226;-87
2024/01/19 08:12:54;;;;;;;0.50;0.50;;;-0.40;99.90;;;;;;5050943;28;20270;-87
2024/01/19 08:15:19;;;;;;;0.40;0.40;;;-0.50;99.90;;;;;;5072312;28;20432;-87
2024/01/19 08:17:45;;;;;;;0.60;0.60;;;-0.40;99.90;;;;;;5052897;28;20239;-87
2024/01/19 08:20:10;;;;;;;0.60;0.60;;;-0.50;99.90;;;;;;5071963;28;20213;-85
2024/01/19 08:22:37;;;;;;;0.50;0.50;;;-0.40;99.90;;;;;;5070078;28;20425;-87
2024/01/19 08:25:04;;;;;;;0.50;0.50;;;-0.30;99.90;;;;;;5051933;28;20220;-86
2024/01/19 08:27:29;;;;;;;0.50;0.50;;;-0.40;99.90;;;;;;5071487;28;20424;-87
2024/01/19 08:29:55;;;;;;;0.60;0.60;;;-0.30;99.90;;;;;;5053601;28;20497;-87
2024/01/19 08:32:23;;;;;;;0.50;0.50;;;-0.20;99.90;;;;;;5064577;28;20174;-87
2024/01/19 08:34:49;;;;;;;0.50;0.50;;;-0.10;99.90;;;;;;5069486;28;20174;-87
2024/01/19 08:37:15;;;;;;;0.50;0.50;;;0.00;99.90;;;;;;5053419;28;20931;-87
2024/01/19 08:39:40;;;;;;;0.50;0.50;;;0.00;99.90;;;;;;5046267;28;20186;-86
2024/01/19 08:42:06;;;;;;;0.60;0.60;;;0.20;99.90;;;;;;5068037;28;20584;-86
2024/01/19 08:44:32;;;;;;;0.40;0.40;;;0.10;99.90;;;;;;5052912;28;20899;-87
2024/01/19 08:46:57;;;;;;;0.40;0.40;;;0.20;99.90;;;;;;5071150;28;20174;-87
2024/01/19 08:49:24;;;;;;;0.50;0.50;;;0.30;99.90;;;;;;5070709;28;20444;-87
2024/01/19 08:51:51;;;;;;;0.47;0.47;;;0.30;99.90;;;;;;5069642;28;20235;-87
2024/01/19 08:54:17;;;;;;;0.50;0.50;;;0.40;99.90;;;;;;5072438;28;20429;-88
2024/01/19 08:56:43;;;;;;;0.40;0.40;;;0.60;99.90;;;;;;5062589;28;20512;-88
2024/01/19 08:59:08;;;;;;;0.50;0.50;;;0.80;99.90;;;;;;5060588;28;21012;-87
2024/01/19 09:01:34;;;;;;;0.50;0.50;;;0.90;99.90;;;;;;5070567;28;20601;-88
2024/01/19 09:04:00;;;;;;;0.50;0.50;;;1.00;99.90;;;;;;5068847;28;20237;-88
2024/01/19 09:06:25;;;;;;;0.40;0.40;;;1.00;99.90;;;;;;5047127;28;20281;-87
2024/01/19 09:08:51;;;;;;;0.50;0.50;;;1.10;99.90;;;;;;5069175;28;20259;-86
2024/01/19 09:11:16;;;;;;;0.50;0.50;;;1.00;99.90;;;;;;5051661;28;20238;-85
2024/01/19 09:13:42;;;;;;;0.50;0.50;;;1.00;99.90;;;;;;5067156;28;20186;-86
2024/01/19 09:16:08;;;;;;;0.50;0.50;;;1.10;99.90;;;;;;5058206;28;20198;-87
2024/01/19 09:18:35;;;;;;;0.40;0.40;;;1.10;99.90;;;;;;5040922;28;20278;-86
2024/01/19 09:21:01;;;;;;;0.50;0.50;;;1.30;99.90;;;;;;5059336;28;20787;-87
2024/01/19 09:23:26;;;;;;;0.50;0.50;;;1.30;99.90;;;;;;5060081;28;20503;-86
2024/01/19 09:25:52;;;;;;;0.50;0.50;;;1.30;99.90;;;;;;5040288;28;20225;-87
2024/01/19 09:28:18;;;;;;;0.50;0.50;;;1.60;99.90;;;;;;5045702;28;20573;-86
2024/01/19 09:30:44;;;;;;;0.57;0.57;;;1.60;99.90;;;;;;5068689;28;20174;-86
2024/01/19 09:33:09;;;;;;;0.50;0.50;;;1.70;99.90;;;;;;5068469;28;20428;-86
2024/01/19 09:35:35;;;;;;;0.40;0.40;;;1.80;99.90;;;;;;5052971;28;20209;-87
2024/01/19 09:38:00;;;;;;;0.47;0.47;;;1.90;99.90;;;;;;5070339;28;20274;-87
2024/01/19 09:40:26;;;;;;;0.50;0.50;;;2.10;99.90;;;;;;5053090;28;20274;-87
2024/01/19 09:42:56;;;;;;;0.40;0.40;;;2.20;99.90;;;;;;5066021;28;20492;-87
2024/01/19 09:45:26;;;;;;;0.40;0.40;;;2.30;99.90;;;;;;5070576;28;20218;-88
2024/01/19 09:48:20;;;;;;;0.50;0.50;;;2.30;99.90;;;;;;5068503;28;20901;-87
2024/01/19 09:50:49;;;;;;;0.47;0.47;;;2.40;99.90;;;;;;5069606;28;20429;-87
2024/01/19 09:53:45;;;;;;;0.50;0.50;;;2.30;99.90;;;;;;5061440;28;20420;-87
2024/01/19 09:56:12;;;;;;;0.40;0.40;;;2.60;99.90;;;;;;5068676;28;20444;-89
2024/01/19 09:58:38;;;;;;;0.40;0.40;;;2.40;99.90;;;;;;5068777;28;20450;-87
2024/01/19 10:01:04;;;;;;;0.40;0.40;;;2.20;99.90;;;;;;5070167;28;20271;-89
2024/01/19 10:03:29;;;;;;;;;;;2.10;99.90;;;;;;5064439;28;20143;-88
2024/01/19 10:05:55;;;;;;;;;;;2.10;99.90;;;;;;5052015;28;20006;-89
2024/01/19 10:08:20;;;;;;;;;;;2.00;99.90;;;;;;5070471;28;19912;-88
2024/01/19 10:10:46;;;;;;;;;;;2.00;99.90;;;;;;5068726;28;19968;-89
2024/01/19 10:13:12;;;;;;;;;;;2.10;99.90;;;;;;5071063;28;20006;-87
2024/01/19 10:15:37;;;;;;;;;;;2.00;99.90;;;;;;5070474;28;19987;-87
2024/01/19 10:18:05;;;;;;;;;;;1.90;99.90;;;;;;5068326;28;20003;-86
2024/01/19 10:20:31;;;;;;;;;;;1.80;99.90;;;;;;5066581;28;19939;-86
2024/01/19 10:22:56;;;;;;;;;;;1.80;99.90;;;;;;5069858;28;20335;-87
2024/01/19 10:25:22;;;;;;;;;;;1.90;99.90;;;;;;5069751;28;19975;-87
2024/01/19 10:27:48;;;;;;;;;;;1.90;99.90;;;;;;5070499;28;19905;-87
2024/01/19 10:30:20;;;;;;;;;;;1.90;99.90;;;;;;5070504;28;19908;-87
2024/01/19 10:32:46;;;;;;;;;;;1.90;99.90;;;;;;5066392;28;19995;-88
2024/01/19 10:35:13;;;;;;;;;;;1.80;99.90;;;;;;5047125;28;20304;-87
2024/01/19 10:37:39;;;;;;;;;;;2.00;99.90;;;;;;5052774;28;19929;-86
2024/01/19 10:40:15;;;;;;;;;;;1.90;99.90;;;;;;5052352;28;20368;-87
2024/01/19 10:42:41;;;;;;;;;;;2.00;99.90;;;;;;5070391;28;19954;-86
2024/01/19 10:45:13;;;;;;;;;;;2.00;99.90;;;;;;5051956;28;20412;-87
2024/01/19 10:47:42;;;;;;;;;;;2.00;99.90;;;;;;5069448;28;20374;-87
2024/01/19 10:50:08;;;;;;;;;;;2.00;99.90;;;;;;5048567;28;19912;-87
2024/01/19 10:52:34;;;;;;;;;;;2.00;99.90;;;;;;5070199;28;19909;-87
2024/01/19 10:54:59;;;;;;;;;;;2.10;99.90;;;;;;5052055;28;20257;-87
2024/01/19 10:57:25;;;;;;;;;;;2.20;99.90;;;;;;5070476;28;20377;-87
2024/01/19 10:59:50;;;;;;;;;;;2.20;99.90;;;;;;5049780;28;19961;-86
2024/01/19 11:02:17;;;;;;;0.40;0.40;;;2.20;99.90;;;;;;5067065;28;20197;-87
2024/01/19 11:04:44;;;;;;;0.40;0.40;;;2.20;99.90;;;;;;5051568;28;20210;-87
2024/01/19 11:07:10;;;;;;;0.40;0.40;;;2.10;99.90;;;;;;5047432;28;20540;-87
2024/01/19 11:09:35;;;;;;;0.40;0.40;;;2.00;99.90;;;;;;5064431;28;20527;-88
2024/01/19 11:12:04;;;;;;;0.40;0.40;;;2.00;99.90;;;;;;5051177;28;20178;-87
2024/01/19 11:14:32;;;;;;;0.47;0.47;;;2.10;99.90;;;;;;5071214;28;20182;-87
2024/01/19 11:16:58;;;;;;;0.50;0.50;;;2.00;99.90;;;;;;5069701;28;20793;-87
2024/01/19 11:19:24;;;;;;;0.50;0.50;;;2.00;99.90;;;;;;5049867;28;20437;-89
2024/01/19 11:21:50;;;;;;;0.50;0.50;;;2.00;99.90;;;;;;5070708;28;20244;-87
2024/01/19 11:24:18;;;;;;;0.50;0.50;;;2.10;99.90;;;;;;5069969;28;21049;-87
2024/01/19 11:26:48;;;;;;;0.50;0.50;;;2.00;99.90;;;;;;5067451;28;20182;-89
2024/01/19 11:29:14;;;;;;;0.40;0.40;;;1.90;99.90;;;;;;5068275;28;20423;-89
2024/01/19 11:31:40;;;;;;;0.50;0.50;;;1.90;99.90;;;;;;5050881;28;20420;-88
2024/01/19 11:34:06;;;;;;;0.50;0.50;;;2.00;99.90;;;;;;5069777;28;20178;-87
2024/01/19 11:36:41;;;;;;;0.40;0.40;;;2.50;99.90;;;;;;5071133;28;20522;-86
2024/01/19 11:39:13;;;;;;;0.40;0.40;;;2.40;99.90;;;;;;5065443;28;20444;-86
2024/01/19 11:41:40;;;;;;;0.37;0.37;;;2.30;99.90;;;;;;5072772;28;20424;-88
2024/01/19 11:44:12;;;;;;;0.30;0.30;;;2.30;99.90;;;;;;5072844;28;20456;-88
2024/01/19 11:46:45;;;;;;;0.50;0.50;;;2.30;99.90;;;;;;5055600;28;20426;-87
2024/01/19 11:49:29;;;;;;;0.40;0.40;;;2.20;99.90;;;;;;5072663;28;20561;-86
2024/01/19 11:51:56;;;;;;;0.40;0.40;;;2.20;99.90;;;;;;5049810;28;20455;-87
2024/01/19 11:54:32;;;;;;;0.40;0.40;;;2.30;99.90;;;;;;5072146;28;20453;-86
2024/01/19 11:57:20;;;;;;;0.40;0.40;;;2.30;99.90;;;;;;5073011;28;20526;-84
2024/01/19 11:59:47;;;;;;;0.47;0.47;;;2.20;99.90;;;;;;5072125;28;20431;-85
2024/01/19 12:02:33;;;;;;;0.50;0.50;;;2.10;99.90;;;;;;5072550;28;20416;-86
2024/01/19 12:05:03;;;;;;;0.50;0.50;;;2.00;99.90;;;;;;5050160;28;20476;-87
2024/01/19 12:07:29;;;;;;;0.40;0.40;;;2.00;99.90;;;;;;5064512;28;20436;-86
2024/01/19 12:10:10;;;;;;;0.50;0.50;;;2.00;99.90;;;;;;5054658;28;20571;-87
2024/01/19 12:12:37;;;;;;;0.30;0.30;;;1.90;99.90;;;;;;5051973;28;21098;-86
2024/01/19 12:15:04;;;;;;;0.47;0.47;;;1.90;99.90;;;;;;5068103;28;20534;-87
2024/01/19 12:17:30;;;;;;;0.50;0.50;;;1.90;99.90;;;;;;5054043;28;20440;-86
2024/01/19 12:19:56;;;;;;;0.33;0.33;;;1.90;99.90;;;;;;5072171;28;20419;-87
2024/01/19 12:22:22;;;;;;;0.47;0.47;;;2.00;99.90;;;;;;5052929;28;20678;-85
2024/01/19 12:24:48;;;;;;;0.50;0.50;;;2.00;99.90;;;;;;5051192;28;20204;-86
2024/01/19 12:27:17;;;;;;;0.50;0.50;;;2.00;99.90;;;;;;5071662;28;20951;-85
2024/01/19 12:29:42;;;;;;;0.40;0.40;;;2.00;99.90;;;;;;5071932;28;20571;-87
2024/01/19 12:32:12;;;;;;;0.40;0.40;;;2.00;99.90;;;;;;5070377;28;20420;-88
2024/01/19 12:34:38;;;;;;;0.40;0.40;;;2.00;99.90;;;;;;5070400;28;20269;-87
2024/01/19 12:37:04;;;;;;;0.30;0.30;;;2.10;99.90;;;;;;5053695;28;21071;-87
2024/01/19 12:39:30;;;;;;;0.50;0.50;;;2.10;99.90;;;;;;5069339;28;20450;-87
2024/01/19 12:42:00;;;;;;;0.40;0.40;;;2.10;99.90;;;;;;5071946;28;21207;-87
2024/01/19 12:44:26;;;;;;;0.50;0.50;;;2.20;99.90;;;;;;5052537;28;20264;-87
2024/01/19 12:46:51;;;;;;;0.40;0.40;;;2.30;99.90;;;;;;5050478;28;20440;-86
2024/01/19 12:49:17;;;;;;;0.40;0.40;;;2.20;99.90;;;;;;5071593;28;20422;-88
2024/01/19 12:51:43;;;;;;;0.30;0.30;;;2.30;99.90;;;;;;5072236;28;20186;-87
2024/01/19 12:54:09;;;;;;;;;;;2.30;99.90;;;;;;5051462;28;20028;-88
2024/01/19 12:56:34;;;;;;;;;;;2.40;99.90;;;;;;5068573;28;19923;-87
2024/01/19 12:59:11;;;;;;;;;;;2.40;99.90;;;;;;5071531;28;20407;-87
2024/01/19 13:01:44;;;;;;;;;;;2.60;99.90;;;;;;5052960;28;19916;-87
2024/01/19 13:04:16;;;;;;;;;;;2.60;99.90;;;;;;5071027;28;19920;-88
2024/01/19 13:06:42;;;;;;;;;;;2.40;99.90;;;;;;5070444;28;19916;-88
2024/01/19 13:09:09;;;;;;;;;;;2.20;99.90;;;;;;5067040;28;19909;-87
2024/01/19 13:11:35;;;;;;;;;;;2.30;99.90;;;;;;5054486;28;19983;-88
2024/01/19 13:14:04;;;;;;;0.40;0.40;;;2.20;99.90;;;;;;5072051;28;20345;-88